createdAt,value
2019-04-26T00:02:10.280Z,5.00
2019-04-26T00:05:14.391Z,4.60
2019-04-26T00:08:17.923Z,4.62
2019-04-26T00:11:47.845Z,4.90
2019-04-26T00:15:10.101Z,5.30
2019-04-26T00:18:14.649Z,4.83
2019-04-26T00:21:18.245Z,4.55
2019-04-26T00:24:21.449Z,4.30
2019-04-26T00:27:24.036Z,4.47
2019-04-26T00:30:26.512Z,4.12
2019-04-26T00:33:29.111Z,4.17
2019-04-26T00:36:31.482Z,4.67
2019-04-26T00:39:33.866Z,4.75
2019-04-26T00:42:36.514Z,4.90
2019-04-26T00:48:43.371Z,4.72
2019-04-26T00:51:46.568Z,4.60
2019-04-26T00:54:49.016Z,4.87
2019-04-26T00:57:51.783Z,4.40
2019-04-26T01:00:54.207Z,4.40
2019-04-26T01:03:56.662Z,4.42
2019-04-26T01:06:59.475Z,4.25
2019-04-26T01:10:01.819Z,4.67
2019-04-26T01:13:04.178Z,5.00
2019-04-26T01:16:06.609Z,4.85
2019-04-26T01:19:10.655Z,4.92
2019-04-26T01:22:19.297Z,4.67
2019-04-26T01:25:37.388Z,5.30
2019-04-26T01:28:54.267Z,5.22
2019-04-26T01:32:05.782Z,5.28
2019-04-26T01:35:08.380Z,5.60
2019-04-26T01:41:24.083Z,6.50
2019-04-26T01:44:39.151Z,6.30
2019-04-26T01:47:41.878Z,6.67
2019-04-26T01:50:44.297Z,6.30
2019-04-26T01:53:50.786Z,6.22
2019-04-26T01:56:57.507Z,6.25
2019-04-26T02:00:29.550Z,6.67
2019-04-26T02:03:32.079Z,6.33
2019-04-26T02:06:35.317Z,6.45
2019-04-26T02:09:37.780Z,6.35
2019-04-26T02:12:44.031Z,7.17
2019-04-26T02:15:46.432Z,6.87
2019-04-26T02:18:48.850Z,6.80
2019-04-26T02:21:57.520Z,7.22
2019-04-26T02:25:00.029Z,6.92
2019-04-26T02:28:02.344Z,7.40
2019-04-26T02:31:04.783Z,7.58
2019-04-26T02:34:08.494Z,7.58
2019-04-26T02:37:14.115Z,7.65
2019-04-26T02:40:17.935Z,7.50
2019-04-26T02:43:23.894Z,7.70
2019-04-26T02:46:58.976Z,7.67
2019-04-26T02:50:06.104Z,8.48
2019-04-26T02:53:31.011Z,8.15
2019-04-26T02:56:40.093Z,8.45
2019-04-26T02:59:45.281Z,8.85
2019-04-26T03:03:00.252Z,8.35
2019-04-26T03:06:06.038Z,9.65
2019-04-26T03:09:08.466Z,9.08
2019-04-26T03:12:14.400Z,8.95
2019-04-26T03:15:30.353Z,10.05
2019-04-26T03:19:01.171Z,10.05
2019-04-26T03:22:51.878Z,9.40
2019-04-26T03:26:10.409Z,9.40
2019-04-26T03:29:44.783Z,9.23
2019-04-26T03:32:59.574Z,9.18
2019-04-26T03:36:30.149Z,8.85
2019-04-26T03:40:09.307Z,9.20
2019-04-26T03:43:30.428Z,9.03
2019-04-26T03:46:48.558Z,8.63
2019-04-26T03:50:16.338Z,9.25
2019-04-26T03:53:54.451Z,9.18
2019-04-26T03:57:25.800Z,8.60
2019-04-26T04:00:51.569Z,9.10
2019-04-26T04:04:02.494Z,9.73
2019-04-26T04:07:08.726Z,9.35
2019-04-26T04:10:18.337Z,8.70
2019-04-26T04:13:49.204Z,10.68
2019-04-26T04:17:17.797Z,8.63
2019-04-26T04:21:17.194Z,10.03
2019-04-26T04:24:46.979Z,10.55
2019-04-26T04:27:59.136Z,10.00
2019-04-26T04:31:13.801Z,10.40
2019-04-26T04:34:25.841Z,10.53
2019-04-26T04:37:32.044Z,10.75
2019-04-26T04:41:20.798Z,9.13
2019-04-26T04:45:26.279Z,9.95
2019-04-26T04:49:06.927Z,11.03
2019-04-26T04:52:48.217Z,10.82
2019-04-26T04:56:09.003Z,10.75
2019-04-26T04:59:18.579Z,10.63
2019-04-26T05:02:56.167Z,10.78
2019-04-26T05:06:29.289Z,10.68
2019-04-26T05:12:50.363Z,10.60
2019-04-26T05:16:33.071Z,10.18
2019-04-26T05:20:23.936Z,10.20
2019-04-26T05:23:55.880Z,10.75
2019-04-26T05:27:39.040Z,11.88
2019-04-26T05:31:07.625Z,10.03
2019-04-26T05:34:34.158Z,11.60
2019-04-26T05:38:18.378Z,11.83
2019-04-26T05:41:37.384Z,11.73
2019-04-26T05:45:28.865Z,11.38
2019-04-26T05:49:03.857Z,10.50
2019-04-26T05:52:43.177Z,11.97
2019-04-26T05:56:43.841Z,11.95
2019-04-26T06:00:24.274Z,11.25
2019-04-26T06:04:09.964Z,11.03
2019-04-26T06:07:28.814Z,11.15
2019-04-26T06:10:54.155Z,10.08
2019-04-26T06:14:32.082Z,10.45
2019-04-26T06:18:08.222Z,10.25
2019-04-26T06:21:32.630Z,10.53
2019-04-26T06:25:35.090Z,10.60
2019-04-26T06:28:56.832Z,10.48
2019-04-26T06:32:11.733Z,11.53
2019-04-26T06:35:20.111Z,10.75
2019-04-26T06:39:39.766Z,10.08
2019-04-26T06:43:35.040Z,9.78
2019-04-26T06:47:04.884Z,10.00
2019-04-26T06:50:20.463Z,10.20
2019-04-26T06:54:06.405Z,9.93
2019-04-26T06:57:59.393Z,8.63
2019-04-26T07:01:13.815Z,8.65
2019-04-26T07:04:44.213Z,7.85
2019-04-26T07:08:40.786Z,7.40
2019-04-26T07:12:24.262Z,8.05
2019-04-26T07:19:23.969Z,7.60
2019-04-26T07:22:51.427Z,7.42
2019-04-26T07:26:24.596Z,8.28
2019-04-26T07:33:28.958Z,7.65
2019-04-26T07:37:08.880Z,7.78
2019-04-26T07:40:51.846Z,7.53
2019-04-26T07:44:26.739Z,6.87
2019-04-26T07:48:32.137Z,6.58
2019-04-26T07:52:19.160Z,6.00
2019-04-26T07:55:47.636Z,6.70
2019-04-26T07:59:26.572Z,6.28
2019-04-26T08:02:59.635Z,5.78
2019-04-26T08:06:52.792Z,5.87
2019-04-26T08:10:07.899Z,5.92
2019-04-26T08:13:15.272Z,5.47
2019-04-26T08:16:42.787Z,5.85
2019-04-26T08:19:57.774Z,5.37
2019-04-26T08:23:09.083Z,5.35
2019-04-26T08:26:13.805Z,5.42
2019-04-26T08:29:20.013Z,4.80
2019-04-26T08:32:28.204Z,4.87
2019-04-26T08:35:34.046Z,5.03
2019-04-26T08:38:37.828Z,5.35
2019-04-26T08:41:42.141Z,5.53
2019-04-26T08:44:52.147Z,4.92
2019-04-26T08:48:17.623Z,4.30
2019-04-26T08:51:22.059Z,4.20
2019-04-26T08:54:28.693Z,4.72
2019-04-26T08:57:35.117Z,4.08
2019-04-26T09:01:13.029Z,4.30
2019-04-26T09:04:23.799Z,3.50
2019-04-26T09:07:32.800Z,3.22
2019-04-26T09:10:39.245Z,4.03
2019-04-26T09:13:46.711Z,3.27
2019-04-26T09:16:50.541Z,3.50
2019-04-26T09:19:53.268Z,2.90
2019-04-26T09:23:13.965Z,3.35
2019-04-26T09:26:24.797Z,3.35
2019-04-26T09:29:41.851Z,3.30
2019-04-26T09:33:03.109Z,3.60
2019-04-26T09:36:06.278Z,3.00
2019-04-26T09:39:28.427Z,3.10
2019-04-26T09:42:46.649Z,3.50
2019-04-26T09:46:11.230Z,2.72
2019-04-26T09:49:48.287Z,2.83
2019-04-26T09:52:51.030Z,2.45
2019-04-26T09:55:53.497Z,2.35
2019-04-26T10:01:59.472Z,1.90
2019-04-26T10:05:02.124Z,2.42
2019-04-26T10:11:09.592Z,1.60
2019-04-26T10:14:54.314Z,2.10
2019-04-26T10:17:56.845Z,2.00
2019-04-26T10:24:01.302Z,1.70
2019-04-26T10:30:09.668Z,1.90
2019-04-26T10:33:12.307Z,1.80
2019-04-26T10:39:18.445Z,1.87
2019-04-26T10:42:21.159Z,1.60
2019-04-26T10:45:24.426Z,1.90
2019-04-26T10:48:26.863Z,1.50
2019-04-26T10:51:38.627Z,1.55
2019-04-26T10:54:41.392Z,1.70
2019-04-26T10:57:45.758Z,1.60
2019-04-26T11:00:52.664Z,1.67
2019-04-26T11:03:55.058Z,1.60
2019-04-26T11:10:02.929Z,1.62
2019-04-26T11:13:05.752Z,2.00
2019-04-26T11:16:08.941Z,1.98
2019-04-26T11:19:11.500Z,1.55
2019-04-26T11:25:15.899Z,2.00
2019-04-26T11:31:23.325Z,1.65
2019-04-26T11:34:26.265Z,1.77
2019-04-26T11:40:30.653Z,1.53
2019-04-26T11:46:44.743Z,1.60
2019-04-26T11:49:41.600Z,2.05
2019-04-26T11:52:43.832Z,1.80
2019-04-26T11:58:48.508Z,2.27
2019-04-26T12:01:50.957Z,1.62
2019-04-26T12:08:15.322Z,2.02
2019-04-26T12:11:19.133Z,1.57
2019-04-26T12:14:22.065Z,1.55
2019-04-26T12:20:31.197Z,2.22
2019-04-26T12:23:33.661Z,1.62
2019-04-26T12:29:39.801Z,1.70
2019-04-26T12:35:44.206Z,1.40
2019-04-26T12:41:48.499Z,1.40
2019-04-26T12:48:21.411Z,1.45
2019-04-26T12:51:23.864Z,1.57
2019-04-26T12:57:28.185Z,1.60
2019-04-26T13:00:32.956Z,1.80
2019-04-26T13:03:34.858Z,1.52
2019-04-26T13:06:56.974Z,1.50
2019-04-26T13:10:14.411Z,1.77
2019-04-26T13:13:36.321Z,1.50
2019-04-26T13:16:48.800Z,1.50
2019-04-26T13:19:53.810Z,1.62
2019-04-26T13:22:56.003Z,1.72
2019-04-26T13:29:02.119Z,1.80
2019-04-26T13:35:07.282Z,2.00
2019-04-26T13:38:10.879Z,2.00
2019-04-26T13:44:17.762Z,1.65
2019-04-26T13:47:55.124Z,1.50
2019-04-26T13:51:05.626Z,1.60
2019-04-26T13:54:07.051Z,1.50
2019-04-26T14:00:17.327Z,1.52
2019-04-26T14:03:19.781Z,1.50
2019-04-26T14:09:24.395Z,1.30
2019-04-26T14:12:26.890Z,1.30
2019-04-26T14:15:29.580Z,1.40
2019-04-26T14:18:34.673Z,1.47
2019-04-26T14:21:36.332Z,1.67
2019-04-26T14:27:51.583Z,1.60
2019-04-26T14:30:54.229Z,1.52
2019-04-26T14:33:56.817Z,1.30
2019-04-26T14:37:06.474Z,1.60
2019-04-26T14:40:16.638Z,1.52
2019-04-26T14:43:08.610Z,1.40
2019-04-26T14:46:14.623Z,1.80
2019-04-26T14:49:19.188Z,2.37
2019-04-26T14:52:24.069Z,1.50
2019-04-26T14:55:25.028Z,1.65
2019-04-26T14:58:30.306Z,1.60
2019-04-26T15:01:54.517Z,1.50
2019-04-26T15:05:19.293Z,1.30
2019-04-26T15:08:22.617Z,1.22
2019-04-26T15:11:25.182Z,1.27
2019-04-26T15:14:27.716Z,1.50
2019-04-26T15:17:30.185Z,1.25
2019-04-26T15:20:32.717Z,1.35
2019-04-26T15:23:35.169Z,1.30
2019-04-26T15:29:39.445Z,1.40
2019-04-26T15:35:46.162Z,1.22
2019-04-26T15:38:49.377Z,1.32
2019-04-26T15:42:14.414Z,1.30
2019-04-26T15:45:42.437Z,1.10
2019-04-26T15:48:54.603Z,1.27
2019-04-26T15:51:56.411Z,1.22
2019-04-26T15:55:03.502Z,1.05
2019-04-26T15:58:08.242Z,1.60
2019-04-26T16:01:10.910Z,1.20
2019-04-26T16:04:13.296Z,1.35
2019-04-26T16:07:26.998Z,1.82
2019-04-26T16:10:25.510Z,3.30
2019-04-26T16:13:25.388Z,2.42
2019-04-26T16:16:29.165Z,3.42
2019-04-26T16:19:32.110Z,1.62
2019-04-26T16:25:38.343Z,2.10
2019-04-26T16:29:18.162Z,1.12
2019-04-26T16:32:43.256Z,2.20
2019-04-26T16:35:45.922Z,3.70
2019-04-26T16:41:52.468Z,0.90
2019-04-26T16:44:55.338Z,1.07
2019-04-26T16:47:58.003Z,1.00
2019-04-26T16:51:01.097Z,1.07
2019-04-26T16:54:08.706Z,1.22
2019-04-26T17:00:16.317Z,0.70
2019-04-26T17:03:17.880Z,1.17
2019-04-26T17:09:23.614Z,1.07
2019-04-26T17:09:50.249Z,1.00
2019-04-26T17:12:26.319Z,3.27
2019-04-26T17:18:32.297Z,1.87
2019-04-26T17:21:43.062Z,1.52
2019-04-26T17:25:26.623Z,1.32
2019-04-26T17:28:27.428Z,2.83
2019-04-26T17:34:33.639Z,1.93
2019-04-26T17:37:36.224Z,4.15
2019-04-26T17:43:46.940Z,4.10
2019-04-26T17:46:48.946Z,3.70
2019-04-26T17:49:52.364Z,2.55
2019-04-26T17:52:54.821Z,1.22
2019-04-26T17:59:03.201Z,1.07
2019-04-26T18:02:04.230Z,1.10
2019-04-26T18:05:07.095Z,0.90
2019-04-26T18:08:32.795Z,1.25
2019-04-26T18:11:19.767Z,1.12
2019-04-26T18:14:21.548Z,1.10
2019-04-26T18:17:53.082Z,1.02
2019-04-26T18:24:17.533Z,0.80
2019-04-26T18:30:23.636Z,0.95
2019-04-26T18:33:26.225Z,1.00
2019-04-26T18:39:33.182Z,1.37
2019-04-26T18:42:37.601Z,1.90
2019-04-26T18:45:44.462Z,1.30
2019-04-26T18:48:49.007Z,1.10
2019-04-26T18:51:51.783Z,1.62
2019-04-26T18:55:05.518Z,1.67
2019-04-26T19:01:11.022Z,1.70
2019-04-26T19:04:15.458Z,1.45
2019-04-26T19:07:17.760Z,1.20
2019-04-26T19:10:21.600Z,1.30
2019-04-26T19:13:43.893Z,1.77
2019-04-26T19:16:59.066Z,1.45
2019-04-26T19:20:29.700Z,1.50
2019-04-26T19:23:32.342Z,1.60
2019-04-26T19:29:37.733Z,1.80
2019-04-26T19:35:44.010Z,1.52
2019-04-26T19:38:49.820Z,1.70
2019-04-26T19:41:57.513Z,1.75
2019-04-26T19:45:11.733Z,1.30
2019-04-26T19:48:19.183Z,1.30
2019-04-26T19:51:43.595Z,1.27
2019-04-26T19:54:54.069Z,1.57
2019-04-26T19:58:02.467Z,1.27
2019-04-26T20:01:04.979Z,1.20
2019-04-26T20:04:07.483Z,1.25
2019-04-26T20:07:09.993Z,1.00
2019-04-26T20:10:12.901Z,1.20
2019-04-26T20:13:16.574Z,1.42
2019-04-26T20:16:22.248Z,1.20
2019-04-26T20:19:34.385Z,1.32
2019-04-26T20:22:30.579Z,1.50
2019-04-26T20:25:33.350Z,1.32
2019-04-26T20:28:37.438Z,1.30
2019-04-26T20:32:05.755Z,1.50
2019-04-26T20:35:26.392Z,1.80
2019-04-26T20:38:24.467Z,1.57
2019-04-26T20:41:27.228Z,1.72
2019-04-26T20:44:39.689Z,1.87
2019-04-26T20:47:34.048Z,1.60
2019-04-26T20:50:36.885Z,1.90
2019-04-26T20:53:41.282Z,1.90
2019-04-26T20:56:46.163Z,1.90
2019-04-26T20:59:52.057Z,1.70
2019-04-26T21:02:54.198Z,1.90
2019-04-26T21:05:59.290Z,2.05
2019-04-26T21:09:03.367Z,1.80
2019-04-26T21:12:07.916Z,2.30
2019-04-26T21:15:11.483Z,1.80
2019-04-26T21:18:14.046Z,1.80
2019-04-26T21:21:16.600Z,2.20
2019-04-26T21:27:48.827Z,2.10
2019-04-26T21:31:14.547Z,2.55
2019-04-26T21:34:21.493Z,2.08
2019-04-26T21:37:34.153Z,2.40
2019-04-26T21:40:51.030Z,2.40
2019-04-26T21:43:53.506Z,2.60
2019-04-26T21:46:58.878Z,2.40
2019-04-26T21:50:00.782Z,2.30
2019-04-26T21:53:06.760Z,2.90
2019-04-26T21:56:11.561Z,2.33
2019-04-26T21:59:13.775Z,2.52
2019-04-26T22:02:16.836Z,2.75
2019-04-26T22:05:19.317Z,2.67
2019-04-26T22:08:26.058Z,2.65
2019-04-26T22:11:28.463Z,2.70
2019-04-26T22:14:34.164Z,2.65
2019-04-26T22:17:40.593Z,2.65
2019-04-26T22:20:50.936Z,2.50
2019-04-26T22:23:58.887Z,2.42
2019-04-26T22:27:01.324Z,2.67
2019-04-26T22:30:07.419Z,2.98
2019-04-26T22:33:09.899Z,2.50
2019-04-26T22:36:13.167Z,2.20
2019-04-26T22:39:17.058Z,2.62
2019-04-26T22:42:19.474Z,2.60
2019-04-26T22:45:33.553Z,2.20
2019-04-26T22:48:37.161Z,2.20
2019-04-26T22:51:39.909Z,2.33
2019-04-26T22:54:46.418Z,2.35
2019-04-26T22:57:49.680Z,2.67
2019-04-26T23:00:51.307Z,2.65
2019-04-26T23:03:53.925Z,2.50
2019-04-26T23:09:59.123Z,2.72
2019-04-26T23:13:14.990Z,2.70
2019-04-26T23:16:40.456Z,2.77
2019-04-26T23:19:49.392Z,3.05
2019-04-26T23:22:52.932Z,3.02
2019-04-26T23:25:55.428Z,3.00
2019-04-26T23:28:57.874Z,2.75
2019-04-26T23:32:00.359Z,3.25
2019-04-26T23:35:05.963Z,3.17
2019-04-26T23:38:07.254Z,3.22
2019-04-26T23:41:09.710Z,3.40
2019-04-26T23:44:13.229Z,3.27
2019-04-26T23:47:23.039Z,3.25
2019-04-26T23:50:25.559Z,3.58
2019-04-26T23:53:27.059Z,3.20
2019-04-26T23:56:29.486Z,3.83
2019-04-26T23:59:33.634Z,3.72
